<?xml version="1.0" encoding="UTF-8" standalone="no" ?>
<gpx xmlns="http://www.topografix.com/GPX/1/1" xmlns:xsi="http://www.w3.org/2001/XMLSchema-instance" xsi:schemaLocation="http://www.topografix.com/GPX/1/1 http://www.topografix.com/GPX/1/1/gpx.xsd" version="1.1" creator="VisuGPX - https://www.visugpx.com">
  <metadata>
    <name>saint-denis, chevrieres, saint-médard </name>
    <desc><![CDATA[                                                                                               ]]></desc>
  </metadata>
  <trk>
    <name><![CDATA[OR-1984206--Chazelles-sur-Lyon:saint-denis, chevrieres, saint-médard]]></name>
    <trkseg>
      <trkpt lat="45.63863" lon="4.3963">
        <ele>616</ele>
        <time>2017-05-26T19:53:54Z</time>
      </trkpt>
      <trkpt lat="45.63843" lon="4.3964">
        <ele>614</ele>
        <time>2017-05-26T19:55:54Z</time>
      </trkpt>
      <trkpt lat="45.63832" lon="4.39588">
        <ele>618</ele>
        <time>2017-05-26T19:57:54Z</time>
      </trkpt>
      <trkpt lat="45.6383" lon="4.39547">
        <ele>622</ele>
        <time>2017-05-26T19:59:54Z</time>
      </trkpt>
      <trkpt lat="45.6381" lon="4.39557">
        <ele>621</ele>
        <time>2017-05-26T20:01:54Z</time>
      </trkpt>
      <trkpt lat="45.63813" lon="4.39469">
        <ele>626</ele>
        <time>2017-05-26T20:03:54Z</time>
      </trkpt>
      <trkpt lat="45.63664" lon="4.39546">
        <ele>626</ele>
        <time>2017-05-26T20:05:54Z</time>
      </trkpt>
      <trkpt lat="45.63645" lon="4.39552">
        <ele>625</ele>
        <time>2017-05-26T20:07:54Z</time>
      </trkpt>
      <trkpt lat="45.6364" lon="4.39567">
        <ele>625</ele>
        <time>2017-05-26T20:09:54Z</time>
      </trkpt>
      <trkpt lat="45.63585" lon="4.39599">
        <ele>622</ele>
        <time>2017-05-26T20:11:54Z</time>
      </trkpt>
      <trkpt lat="45.63515" lon="4.39618">
        <ele>618</ele>
        <time>2017-05-26T20:13:54Z</time>
      </trkpt>
      <trkpt lat="45.63464" lon="4.39644">
        <ele>614</ele>
        <time>2017-05-26T20:15:54Z</time>
      </trkpt>
      <trkpt lat="45.63446" lon="4.39651">
        <ele>613</ele>
        <time>2017-05-26T20:17:54Z</time>
      </trkpt>
      <trkpt lat="45.63318" lon="4.39669">
        <ele>601</ele>
        <time>2017-05-26T20:19:54Z</time>
      </trkpt>
      <trkpt lat="45.63295" lon="4.3968">
        <ele>599</ele>
        <time>2017-05-26T20:21:54Z</time>
      </trkpt>
      <trkpt lat="45.63238" lon="4.39713">
        <ele>593</ele>
        <time>2017-05-26T20:23:54Z</time>
      </trkpt>
      <trkpt lat="45.63164" lon="4.39718">
        <ele>584</ele>
        <time>2017-05-26T20:25:54Z</time>
      </trkpt>
      <trkpt lat="45.63149" lon="4.39723">
        <ele>583</ele>
        <time>2017-05-26T20:27:54Z</time>
      </trkpt>
      <trkpt lat="45.63116" lon="4.39809">
        <ele>576</ele>
        <time>2017-05-26T20:29:54Z</time>
      </trkpt>
      <trkpt lat="45.62937" lon="4.40023">
        <ele>557</ele>
        <time>2017-05-26T20:31:54Z</time>
      </trkpt>
      <trkpt lat="45.62877" lon="4.40092">
        <ele>552</ele>
        <time>2017-05-26T20:33:54Z</time>
      </trkpt>
      <trkpt lat="45.62816" lon="4.40127">
        <ele>548</ele>
        <time>2017-05-26T20:35:54Z</time>
      </trkpt>
      <trkpt lat="45.62744" lon="4.40322">
        <ele>541</ele>
        <time>2017-05-26T20:37:54Z</time>
      </trkpt>
      <trkpt lat="45.62699" lon="4.40541">
        <ele>534</ele>
        <time>2017-05-26T20:39:54Z</time>
      </trkpt>
      <trkpt lat="45.62709" lon="4.4062">
        <ele>535</ele>
        <time>2017-05-26T20:41:54Z</time>
      </trkpt>
      <trkpt lat="45.62675" lon="4.40655">
        <ele>538</ele>
        <time>2017-05-26T20:43:54Z</time>
      </trkpt>
      <trkpt lat="45.62619" lon="4.4073">
        <ele>541</ele>
        <time>2017-05-26T20:45:54Z</time>
      </trkpt>
      <trkpt lat="45.62591" lon="4.40833">
        <ele>545</ele>
        <time>2017-05-26T20:47:54Z</time>
      </trkpt>
      <trkpt lat="45.62535" lon="4.41034">
        <ele>554</ele>
        <time>2017-05-26T20:49:54Z</time>
      </trkpt>
      <trkpt lat="45.6252" lon="4.41094">
        <ele>556</ele>
        <time>2017-05-26T20:51:54Z</time>
      </trkpt>
      <trkpt lat="45.62482" lon="4.41176">
        <ele>557</ele>
        <time>2017-05-26T20:53:54Z</time>
      </trkpt>
      <trkpt lat="45.62251" lon="4.40747">
        <ele>546</ele>
        <time>2017-05-26T20:55:54Z</time>
      </trkpt>
      <trkpt lat="45.6224" lon="4.40828">
        <ele>548</ele>
        <time>2017-05-26T20:57:54Z</time>
      </trkpt>
      <trkpt lat="45.62189" lon="4.40925">
        <ele>545</ele>
        <time>2017-05-26T20:59:54Z</time>
      </trkpt>
      <trkpt lat="45.62167" lon="4.41047">
        <ele>545</ele>
        <time>2017-05-26T21:01:54Z</time>
      </trkpt>
      <trkpt lat="45.62162" lon="4.41077">
        <ele>545</ele>
        <time>2017-05-26T21:03:54Z</time>
      </trkpt>
      <trkpt lat="45.62087" lon="4.41088">
        <ele>538</ele>
        <time>2017-05-26T21:05:54Z</time>
      </trkpt>
      <trkpt lat="45.62023" lon="4.41086">
        <ele>530</ele>
        <time>2017-05-26T21:07:54Z</time>
      </trkpt>
      <trkpt lat="45.61958" lon="4.41062">
        <ele>522</ele>
        <time>2017-05-26T21:09:54Z</time>
      </trkpt>
      <trkpt lat="45.61909" lon="4.4106">
        <ele>516</ele>
        <time>2017-05-26T21:11:54Z</time>
      </trkpt>
      <trkpt lat="45.61879" lon="4.4109">
        <ele>514</ele>
        <time>2017-05-26T21:13:54Z</time>
      </trkpt>
      <trkpt lat="45.61754" lon="4.41137">
        <ele>497</ele>
        <time>2017-05-26T21:15:54Z</time>
      </trkpt>
      <trkpt lat="45.61706" lon="4.41103">
        <ele>490</ele>
        <time>2017-05-26T21:17:54Z</time>
      </trkpt>
      <trkpt lat="45.61648" lon="4.41088">
        <ele>483</ele>
        <time>2017-05-26T21:19:54Z</time>
      </trkpt>
      <trkpt lat="45.61589" lon="4.41094">
        <ele>477</ele>
        <time>2017-05-26T21:21:54Z</time>
      </trkpt>
      <trkpt lat="45.61547" lon="4.41215">
        <ele>470</ele>
        <time>2017-05-26T21:23:54Z</time>
      </trkpt>
      <trkpt lat="45.61546" lon="4.41356">
        <ele>467</ele>
        <time>2017-05-26T21:25:54Z</time>
      </trkpt>
      <trkpt lat="45.61532" lon="4.41431">
        <ele>466</ele>
        <time>2017-05-26T21:27:54Z</time>
      </trkpt>
      <trkpt lat="45.61507" lon="4.41412">
        <ele>467</ele>
        <time>2017-05-26T21:29:54Z</time>
      </trkpt>
      <trkpt lat="45.61489" lon="4.41371">
        <ele>467</ele>
        <time>2017-05-26T21:31:54Z</time>
      </trkpt>
      <trkpt lat="45.6148" lon="4.41337">
        <ele>467</ele>
        <time>2017-05-26T21:33:54Z</time>
      </trkpt>
      <trkpt lat="45.61444" lon="4.41346">
        <ele>469</ele>
        <time>2017-05-26T21:35:54Z</time>
      </trkpt>
      <trkpt lat="45.61411" lon="4.4132">
        <ele>470</ele>
        <time>2017-05-26T21:37:54Z</time>
      </trkpt>
      <trkpt lat="45.61349" lon="4.41315">
        <ele>478</ele>
        <time>2017-05-26T21:39:54Z</time>
      </trkpt>
      <trkpt lat="45.61295" lon="4.41326">
        <ele>484</ele>
        <time>2017-05-26T21:41:54Z</time>
      </trkpt>
      <trkpt lat="45.6123" lon="4.41294">
        <ele>494</ele>
        <time>2017-05-26T21:43:54Z</time>
      </trkpt>
      <trkpt lat="45.61158" lon="4.41251">
        <ele>506</ele>
        <time>2017-05-26T21:45:54Z</time>
      </trkpt>
      <trkpt lat="45.61131" lon="4.41208">
        <ele>511</ele>
        <time>2017-05-26T21:47:54Z</time>
      </trkpt>
      <trkpt lat="45.61086" lon="4.41176">
        <ele>517</ele>
        <time>2017-05-26T21:49:54Z</time>
      </trkpt>
      <trkpt lat="45.61055" lon="4.41174">
        <ele>519</ele>
        <time>2017-05-26T21:51:54Z</time>
      </trkpt>
      <trkpt lat="45.60989" lon="4.41155">
        <ele>524</ele>
        <time>2017-05-26T21:53:54Z</time>
      </trkpt>
      <trkpt lat="45.60936" lon="4.41137">
        <ele>530</ele>
        <time>2017-05-26T21:55:54Z</time>
      </trkpt>
      <trkpt lat="45.60894" lon="4.41073">
        <ele>538</ele>
        <time>2017-05-26T21:57:54Z</time>
      </trkpt>
      <trkpt lat="45.60839" lon="4.41">
        <ele>544</ele>
        <time>2017-05-26T21:59:54Z</time>
      </trkpt>
      <trkpt lat="45.60741" lon="4.40987">
        <ele>545</ele>
        <time>2017-05-26T22:01:54Z</time>
      </trkpt>
      <trkpt lat="45.60669" lon="4.40991">
        <ele>544</ele>
        <time>2017-05-26T22:03:54Z</time>
      </trkpt>
      <trkpt lat="45.60573" lon="4.41011">
        <ele>548</ele>
        <time>2017-05-26T22:05:54Z</time>
      </trkpt>
      <trkpt lat="45.60544" lon="4.41026">
        <ele>548</ele>
        <time>2017-05-26T22:07:54Z</time>
      </trkpt>
      <trkpt lat="45.60454" lon="4.41028">
        <ele>551</ele>
        <time>2017-05-26T22:09:54Z</time>
      </trkpt>
      <trkpt lat="45.60421" lon="4.41052">
        <ele>554</ele>
        <time>2017-05-26T22:11:54Z</time>
      </trkpt>
      <trkpt lat="45.60327" lon="4.40972">
        <ele>561</ele>
        <time>2017-05-26T22:13:54Z</time>
      </trkpt>
      <trkpt lat="45.60306" lon="4.40976">
        <ele>563</ele>
        <time>2017-05-26T22:15:54Z</time>
      </trkpt>
      <trkpt lat="45.60301" lon="4.41073">
        <ele>561</ele>
        <time>2017-05-26T22:17:54Z</time>
      </trkpt>
      <trkpt lat="45.60349" lon="4.41133">
        <ele>559</ele>
        <time>2017-05-26T22:19:54Z</time>
      </trkpt>
      <trkpt lat="45.60414" lon="4.41217">
        <ele>557</ele>
        <time>2017-05-26T22:21:54Z</time>
      </trkpt>
      <trkpt lat="45.60355" lon="4.41255">
        <ele>560</ele>
        <time>2017-05-26T22:23:54Z</time>
      </trkpt>
      <trkpt lat="45.6031" lon="4.41249">
        <ele>563</ele>
        <time>2017-05-26T22:25:54Z</time>
      </trkpt>
      <trkpt lat="45.60235" lon="4.41236">
        <ele>568</ele>
        <time>2017-05-26T22:27:54Z</time>
      </trkpt>
      <trkpt lat="45.60207" lon="4.41234">
        <ele>570</ele>
        <time>2017-05-26T22:29:54Z</time>
      </trkpt>
      <trkpt lat="45.60111" lon="4.41191">
        <ele>577</ele>
        <time>2017-05-26T22:31:54Z</time>
      </trkpt>
      <trkpt lat="45.60051" lon="4.4115">
        <ele>581</ele>
        <time>2017-05-26T22:33:54Z</time>
      </trkpt>
      <trkpt lat="45.60061" lon="4.41182">
        <ele>581</ele>
        <time>2017-05-26T22:35:54Z</time>
      </trkpt>
      <trkpt lat="45.60061" lon="4.41212">
        <ele>581</ele>
        <time>2017-05-26T22:37:54Z</time>
      </trkpt>
      <trkpt lat="45.59981" lon="4.41382">
        <ele>602</ele>
        <time>2017-05-26T22:39:54Z</time>
      </trkpt>
      <trkpt lat="45.59956" lon="4.41474">
        <ele>612</ele>
        <time>2017-05-26T22:41:54Z</time>
      </trkpt>
      <trkpt lat="45.59968" lon="4.41504">
        <ele>612</ele>
        <time>2017-05-26T22:43:54Z</time>
      </trkpt>
      <trkpt lat="45.59965" lon="4.41554">
        <ele>609</ele>
        <time>2017-05-26T22:45:54Z</time>
      </trkpt>
      <trkpt lat="45.59971" lon="4.41597">
        <ele>605</ele>
        <time>2017-05-26T22:47:54Z</time>
      </trkpt>
      <trkpt lat="45.59951" lon="4.41627">
        <ele>600</ele>
        <time>2017-05-26T22:49:54Z</time>
      </trkpt>
      <trkpt lat="45.59908" lon="4.41631">
        <ele>599</ele>
        <time>2017-05-26T22:51:54Z</time>
      </trkpt>
      <trkpt lat="45.5987" lon="4.41618">
        <ele>598</ele>
        <time>2017-05-26T22:53:54Z</time>
      </trkpt>
      <trkpt lat="45.59785" lon="4.41612">
        <ele>601</ele>
        <time>2017-05-26T22:55:54Z</time>
      </trkpt>
      <trkpt lat="45.59768" lon="4.41631">
        <ele>599</ele>
        <time>2017-05-26T22:57:54Z</time>
      </trkpt>
      <trkpt lat="45.59771" lon="4.41676">
        <ele>591</ele>
        <time>2017-05-26T22:59:54Z</time>
      </trkpt>
      <trkpt lat="45.59776" lon="4.41727">
        <ele>586</ele>
        <time>2017-05-26T23:01:54Z</time>
      </trkpt>
      <trkpt lat="45.59722" lon="4.41794">
        <ele>587</ele>
        <time>2017-05-26T23:03:54Z</time>
      </trkpt>
      <trkpt lat="45.59638" lon="4.41833">
        <ele>592</ele>
        <time>2017-05-26T23:05:54Z</time>
      </trkpt>
      <trkpt lat="45.59611" lon="4.4188">
        <ele>589</ele>
        <time>2017-05-26T23:07:54Z</time>
      </trkpt>
      <trkpt lat="45.59487" lon="4.4176">
        <ele>595</ele>
        <time>2017-05-26T23:09:54Z</time>
      </trkpt>
      <trkpt lat="45.59468" lon="4.41757">
        <ele>595</ele>
        <time>2017-05-26T23:11:54Z</time>
      </trkpt>
      <trkpt lat="45.59447" lon="4.41792">
        <ele>597</ele>
        <time>2017-05-26T23:13:54Z</time>
      </trkpt>
      <trkpt lat="45.59465" lon="4.41955">
        <ele>598</ele>
        <time>2017-05-26T23:15:54Z</time>
      </trkpt>
      <trkpt lat="45.59491" lon="4.41979">
        <ele>594</ele>
        <time>2017-05-26T23:17:54Z</time>
      </trkpt>
      <trkpt lat="45.59453" lon="4.4201">
        <ele>594</ele>
        <time>2017-05-26T23:19:54Z</time>
      </trkpt>
      <trkpt lat="45.5943" lon="4.42022">
        <ele>594</ele>
        <time>2017-05-26T23:21:54Z</time>
      </trkpt>
      <trkpt lat="45.594" lon="4.42071">
        <ele>587</ele>
        <time>2017-05-26T23:23:54Z</time>
      </trkpt>
      <trkpt lat="45.5939" lon="4.42107">
        <ele>586</ele>
        <time>2017-05-26T23:25:54Z</time>
      </trkpt>
      <trkpt lat="45.59397" lon="4.42212">
        <ele>582</ele>
        <time>2017-05-26T23:27:54Z</time>
      </trkpt>
      <trkpt lat="45.59381" lon="4.42315">
        <ele>575</ele>
        <time>2017-05-26T23:29:54Z</time>
      </trkpt>
      <trkpt lat="45.59373" lon="4.42416">
        <ele>564</ele>
        <time>2017-05-26T23:31:54Z</time>
      </trkpt>
      <trkpt lat="45.59379" lon="4.42478">
        <ele>560</ele>
        <time>2017-05-26T23:33:54Z</time>
      </trkpt>
      <trkpt lat="45.59367" lon="4.42536">
        <ele>560</ele>
        <time>2017-05-26T23:35:54Z</time>
      </trkpt>
      <trkpt lat="45.59396" lon="4.42594">
        <ele>564</ele>
        <time>2017-05-26T23:37:54Z</time>
      </trkpt>
      <trkpt lat="45.59439" lon="4.42569">
        <ele>565</ele>
        <time>2017-05-26T23:39:54Z</time>
      </trkpt>
      <trkpt lat="45.59596" lon="4.42521">
        <ele>587</ele>
        <time>2017-05-26T23:41:54Z</time>
      </trkpt>
      <trkpt lat="45.59621" lon="4.42474">
        <ele>585</ele>
        <time>2017-05-26T23:43:54Z</time>
      </trkpt>
      <trkpt lat="45.59643" lon="4.42465">
        <ele>587</ele>
        <time>2017-05-26T23:45:54Z</time>
      </trkpt>
      <trkpt lat="45.5964" lon="4.42495">
        <ele>590</ele>
        <time>2017-05-26T23:47:54Z</time>
      </trkpt>
      <trkpt lat="45.59632" lon="4.42541">
        <ele>596</ele>
        <time>2017-05-26T23:49:54Z</time>
      </trkpt>
      <trkpt lat="45.59588" lon="4.42592">
        <ele>597</ele>
        <time>2017-05-26T23:51:54Z</time>
      </trkpt>
      <trkpt lat="45.5956" lon="4.42629">
        <ele>598</ele>
        <time>2017-05-26T23:53:54Z</time>
      </trkpt>
      <trkpt lat="45.59529" lon="4.42725">
        <ele>601</ele>
        <time>2017-05-26T23:55:54Z</time>
      </trkpt>
      <trkpt lat="45.59533" lon="4.42809">
        <ele>609</ele>
        <time>2017-05-26T23:57:54Z</time>
      </trkpt>
      <trkpt lat="45.59515" lon="4.42833">
        <ele>607</ele>
        <time>2017-05-26T23:59:54Z</time>
      </trkpt>
      <trkpt lat="45.59493" lon="4.4283">
        <ele>605</ele>
        <time>2017-05-27T00:01:54Z</time>
      </trkpt>
      <trkpt lat="45.59398" lon="4.42903">
        <ele>617</ele>
        <time>2017-05-27T00:03:54Z</time>
      </trkpt>
      <trkpt lat="45.59358" lon="4.42854">
        <ele>611</ele>
        <time>2017-05-27T00:05:54Z</time>
      </trkpt>
      <trkpt lat="45.5932" lon="4.42839">
        <ele>608</ele>
        <time>2017-05-27T00:07:54Z</time>
      </trkpt>
      <trkpt lat="45.59284" lon="4.42835">
        <ele>606</ele>
        <time>2017-05-27T00:09:54Z</time>
      </trkpt>
      <trkpt lat="45.59242" lon="4.4286">
        <ele>607</ele>
        <time>2017-05-27T00:11:54Z</time>
      </trkpt>
      <trkpt lat="45.59204" lon="4.42897">
        <ele>609</ele>
        <time>2017-05-27T00:13:54Z</time>
      </trkpt>
      <trkpt lat="45.59113" lon="4.42993">
        <ele>611</ele>
        <time>2017-05-27T00:15:54Z</time>
      </trkpt>
      <trkpt lat="45.59062" lon="4.43066">
        <ele>618</ele>
        <time>2017-05-27T00:17:54Z</time>
      </trkpt>
      <trkpt lat="45.58985" lon="4.43135">
        <ele>625</ele>
        <time>2017-05-27T00:19:54Z</time>
      </trkpt>
      <trkpt lat="45.58913" lon="4.43249">
        <ele>635</ele>
        <time>2017-05-27T00:21:54Z</time>
      </trkpt>
      <trkpt lat="45.58882" lon="4.43281">
        <ele>634</ele>
        <time>2017-05-27T00:23:54Z</time>
      </trkpt>
      <trkpt lat="45.58873" lon="4.43326">
        <ele>639</ele>
        <time>2017-05-27T00:25:54Z</time>
      </trkpt>
      <trkpt lat="45.58879" lon="4.43425">
        <ele>652</ele>
        <time>2017-05-27T00:27:54Z</time>
      </trkpt>
      <trkpt lat="45.58846" lon="4.43476">
        <ele>654</ele>
        <time>2017-05-27T00:29:54Z</time>
      </trkpt>
      <trkpt lat="45.58828" lon="4.43513">
        <ele>657</ele>
        <time>2017-05-27T00:31:54Z</time>
      </trkpt>
      <trkpt lat="45.58698" lon="4.43313">
        <ele>628</ele>
        <time>2017-05-27T00:33:54Z</time>
      </trkpt>
      <trkpt lat="45.58653" lon="4.43285">
        <ele>622</ele>
        <time>2017-05-27T00:35:54Z</time>
      </trkpt>
      <trkpt lat="45.58607" lon="4.43204">
        <ele>609</ele>
        <time>2017-05-27T00:37:54Z</time>
      </trkpt>
      <trkpt lat="45.58616" lon="4.43126">
        <ele>603</ele>
        <time>2017-05-27T00:39:54Z</time>
      </trkpt>
      <trkpt lat="45.5861" lon="4.43051">
        <ele>603</ele>
        <time>2017-05-27T00:41:54Z</time>
      </trkpt>
      <trkpt lat="45.58571" lon="4.42929">
        <ele>617</ele>
        <time>2017-05-27T00:43:54Z</time>
      </trkpt>
      <trkpt lat="45.58572" lon="4.42893">
        <ele>620</ele>
        <time>2017-05-27T00:45:54Z</time>
      </trkpt>
      <trkpt lat="45.58544" lon="4.4283">
        <ele>626</ele>
        <time>2017-05-27T00:47:54Z</time>
      </trkpt>
      <trkpt lat="45.58391" lon="4.42936">
        <ele>634</ele>
        <time>2017-05-27T00:49:54Z</time>
      </trkpt>
      <trkpt lat="45.58264" lon="4.43045">
        <ele>647</ele>
        <time>2017-05-27T00:51:54Z</time>
      </trkpt>
      <trkpt lat="45.58176" lon="4.43105">
        <ele>658</ele>
        <time>2017-05-27T00:53:54Z</time>
      </trkpt>
      <trkpt lat="45.58159" lon="4.43013">
        <ele>651</ele>
        <time>2017-05-27T00:55:54Z</time>
      </trkpt>
      <trkpt lat="45.58132" lon="4.42942">
        <ele>646</ele>
        <time>2017-05-27T00:57:54Z</time>
      </trkpt>
      <trkpt lat="45.58128" lon="4.42899">
        <ele>646</ele>
        <time>2017-05-27T00:59:54Z</time>
      </trkpt>
      <trkpt lat="45.58155" lon="4.42858">
        <ele>644</ele>
        <time>2017-05-27T01:01:54Z</time>
      </trkpt>
      <trkpt lat="45.58183" lon="4.42766">
        <ele>643</ele>
        <time>2017-05-27T01:03:54Z</time>
      </trkpt>
      <trkpt lat="45.58186" lon="4.42687">
        <ele>643</ele>
        <time>2017-05-27T01:05:54Z</time>
      </trkpt>
      <trkpt lat="45.5817" lon="4.42642">
        <ele>642</ele>
        <time>2017-05-27T01:07:54Z</time>
      </trkpt>
      <trkpt lat="45.5814" lon="4.42609">
        <ele>643</ele>
        <time>2017-05-27T01:09:54Z</time>
      </trkpt>
      <trkpt lat="45.58134" lon="4.42551">
        <ele>639</ele>
        <time>2017-05-27T01:11:54Z</time>
      </trkpt>
      <trkpt lat="45.58114" lon="4.42498">
        <ele>637</ele>
        <time>2017-05-27T01:13:54Z</time>
      </trkpt>
      <trkpt lat="45.58101" lon="4.42436">
        <ele>632</ele>
        <time>2017-05-27T01:15:54Z</time>
      </trkpt>
      <trkpt lat="45.58042" lon="4.42369">
        <ele>631</ele>
        <time>2017-05-27T01:17:54Z</time>
      </trkpt>
      <trkpt lat="45.57978" lon="4.42281">
        <ele>626</ele>
        <time>2017-05-27T01:19:54Z</time>
      </trkpt>
      <trkpt lat="45.57955" lon="4.42247">
        <ele>625</ele>
        <time>2017-05-27T01:21:54Z</time>
      </trkpt>
      <trkpt lat="45.57952" lon="4.42206">
        <ele>627</ele>
        <time>2017-05-27T01:23:54Z</time>
      </trkpt>
      <trkpt lat="45.58002" lon="4.42182">
        <ele>626</ele>
        <time>2017-05-27T01:25:54Z</time>
      </trkpt>
      <trkpt lat="45.5803" lon="4.42127">
        <ele>632</ele>
        <time>2017-05-27T01:27:54Z</time>
      </trkpt>
      <trkpt lat="45.58029" lon="4.42099">
        <ele>636</ele>
        <time>2017-05-27T01:29:54Z</time>
      </trkpt>
      <trkpt lat="45.58051" lon="4.4206">
        <ele>640</ele>
        <time>2017-05-27T01:31:54Z</time>
      </trkpt>
      <trkpt lat="45.58101" lon="4.41803">
        <ele>658</ele>
        <time>2017-05-27T01:33:54Z</time>
      </trkpt>
      <trkpt lat="45.58164" lon="4.4177">
        <ele>659</ele>
        <time>2017-05-27T01:35:54Z</time>
      </trkpt>
      <trkpt lat="45.58212" lon="4.41719">
        <ele>659</ele>
        <time>2017-05-27T01:37:54Z</time>
      </trkpt>
      <trkpt lat="45.58236" lon="4.41652">
        <ele>658</ele>
        <time>2017-05-27T01:39:54Z</time>
      </trkpt>
      <trkpt lat="45.58213" lon="4.41642">
        <ele>655</ele>
        <time>2017-05-27T01:41:54Z</time>
      </trkpt>
      <trkpt lat="45.58174" lon="4.41657">
        <ele>653</ele>
        <time>2017-05-27T01:43:54Z</time>
      </trkpt>
      <trkpt lat="45.58141" lon="4.4162">
        <ele>652</ele>
        <time>2017-05-27T01:45:54Z</time>
      </trkpt>
      <trkpt lat="45.58117" lon="4.41534">
        <ele>649</ele>
        <time>2017-05-27T01:47:54Z</time>
      </trkpt>
      <trkpt lat="45.58108" lon="4.41494">
        <ele>646</ele>
        <time>2017-05-27T01:49:54Z</time>
      </trkpt>
      <trkpt lat="45.58011" lon="4.41258">
        <ele>633</ele>
        <time>2017-05-27T01:51:54Z</time>
      </trkpt>
      <trkpt lat="45.58014" lon="4.41174">
        <ele>626</ele>
        <time>2017-05-27T01:53:54Z</time>
      </trkpt>
      <trkpt lat="45.57961" lon="4.41103">
        <ele>619</ele>
        <time>2017-05-27T01:55:54Z</time>
      </trkpt>
      <trkpt lat="45.5793" lon="4.41086">
        <ele>617</ele>
        <time>2017-05-27T01:57:54Z</time>
      </trkpt>
      <trkpt lat="45.57875" lon="4.41116">
        <ele>618</ele>
        <time>2017-05-27T01:59:54Z</time>
      </trkpt>
      <trkpt lat="45.57847" lon="4.41116">
        <ele>617</ele>
        <time>2017-05-27T02:01:54Z</time>
      </trkpt>
      <trkpt lat="45.57803" lon="4.41129">
        <ele>616</ele>
        <time>2017-05-27T02:03:54Z</time>
      </trkpt>
      <trkpt lat="45.57764" lon="4.4114">
        <ele>614</ele>
        <time>2017-05-27T02:05:54Z</time>
      </trkpt>
      <trkpt lat="45.5774" lon="4.41178">
        <ele>616</ele>
        <time>2017-05-27T02:07:54Z</time>
      </trkpt>
      <trkpt lat="45.57625" lon="4.41247">
        <ele>617</ele>
        <time>2017-05-27T02:09:54Z</time>
      </trkpt>
      <trkpt lat="45.57599" lon="4.41303">
        <ele>620</ele>
        <time>2017-05-27T02:11:54Z</time>
      </trkpt>
      <trkpt lat="45.57571" lon="4.41309">
        <ele>621</ele>
        <time>2017-05-27T02:13:54Z</time>
      </trkpt>
      <trkpt lat="45.5755" lon="4.41281">
        <ele>622</ele>
        <time>2017-05-27T02:15:54Z</time>
      </trkpt>
      <trkpt lat="45.57592" lon="4.41148">
        <ele>618</ele>
        <time>2017-05-27T02:17:54Z</time>
      </trkpt>
      <trkpt lat="45.57584" lon="4.41112">
        <ele>621</ele>
        <time>2017-05-27T02:19:54Z</time>
      </trkpt>
      <trkpt lat="45.57443" lon="4.41082">
        <ele>638</ele>
        <time>2017-05-27T02:21:54Z</time>
      </trkpt>
      <trkpt lat="45.57221" lon="4.40891">
        <ele>624</ele>
        <time>2017-05-27T02:23:54Z</time>
      </trkpt>
      <trkpt lat="45.57177" lon="4.40903">
        <ele>623</ele>
        <time>2017-05-27T02:25:54Z</time>
      </trkpt>
      <trkpt lat="45.57139" lon="4.40901">
        <ele>625</ele>
        <time>2017-05-27T02:27:54Z</time>
      </trkpt>
      <trkpt lat="45.57124" lon="4.40871">
        <ele>624</ele>
        <time>2017-05-27T02:29:54Z</time>
      </trkpt>
      <trkpt lat="45.57127" lon="4.40811">
        <ele>620</ele>
        <time>2017-05-27T02:31:54Z</time>
      </trkpt>
      <trkpt lat="45.57049" lon="4.40691">
        <ele>622</ele>
        <time>2017-05-27T02:33:54Z</time>
      </trkpt>
      <trkpt lat="45.5701" lon="4.40663">
        <ele>624</ele>
        <time>2017-05-27T02:35:54Z</time>
      </trkpt>
      <trkpt lat="45.57024" lon="4.4062">
        <ele>626</ele>
        <time>2017-05-27T02:37:54Z</time>
      </trkpt>
      <trkpt lat="45.57054" lon="4.40579">
        <ele>625</ele>
        <time>2017-05-27T02:39:54Z</time>
      </trkpt>
      <trkpt lat="45.57049" lon="4.40534">
        <ele>626</ele>
        <time>2017-05-27T02:41:54Z</time>
      </trkpt>
      <trkpt lat="45.57096" lon="4.40524">
        <ele>622</ele>
        <time>2017-05-27T02:43:54Z</time>
      </trkpt>
      <trkpt lat="45.5717" lon="4.40446">
        <ele>614</ele>
        <time>2017-05-27T02:45:54Z</time>
      </trkpt>
      <trkpt lat="45.57218" lon="4.40358">
        <ele>605</ele>
        <time>2017-05-27T02:47:54Z</time>
      </trkpt>
      <trkpt lat="45.57297" lon="4.40268">
        <ele>598</ele>
        <time>2017-05-27T02:49:54Z</time>
      </trkpt>
      <trkpt lat="45.57299" lon="4.40223">
        <ele>596</ele>
        <time>2017-05-27T02:51:54Z</time>
      </trkpt>
      <trkpt lat="45.57254" lon="4.40187">
        <ele>596</ele>
        <time>2017-05-27T02:53:54Z</time>
      </trkpt>
      <trkpt lat="45.57258" lon="4.40142">
        <ele>592</ele>
        <time>2017-05-27T02:55:54Z</time>
      </trkpt>
      <trkpt lat="45.57231" lon="4.40127">
        <ele>590</ele>
        <time>2017-05-27T02:57:54Z</time>
      </trkpt>
      <trkpt lat="45.572" lon="4.40071">
        <ele>584</ele>
        <time>2017-05-27T02:59:54Z</time>
      </trkpt>
      <trkpt lat="45.5727" lon="4.39929">
        <ele>582</ele>
        <time>2017-05-27T03:01:54Z</time>
      </trkpt>
      <trkpt lat="45.57295" lon="4.39911">
        <ele>583</ele>
        <time>2017-05-27T03:03:54Z</time>
      </trkpt>
      <trkpt lat="45.57307" lon="4.39896">
        <ele>584</ele>
        <time>2017-05-27T03:05:54Z</time>
      </trkpt>
      <trkpt lat="45.57335" lon="4.39894">
        <ele>585</ele>
        <time>2017-05-27T03:07:54Z</time>
      </trkpt>
      <trkpt lat="45.57361" lon="4.39902">
        <ele>586</ele>
        <time>2017-05-27T03:09:54Z</time>
      </trkpt>
      <trkpt lat="45.57382" lon="4.39898">
        <ele>589</ele>
        <time>2017-05-27T03:11:54Z</time>
      </trkpt>
      <trkpt lat="45.57388" lon="4.39909">
        <ele>588</ele>
        <time>2017-05-27T03:13:54Z</time>
      </trkpt>
      <trkpt lat="45.57428" lon="4.39911">
        <ele>592</ele>
        <time>2017-05-27T03:15:54Z</time>
      </trkpt>
      <trkpt lat="45.57448" lon="4.39905">
        <ele>594</ele>
        <time>2017-05-27T03:17:54Z</time>
      </trkpt>
      <trkpt lat="45.57448" lon="4.3984">
        <ele>601</ele>
        <time>2017-05-27T03:19:54Z</time>
      </trkpt>
      <trkpt lat="45.57462" lon="4.39799">
        <ele>608</ele>
        <time>2017-05-27T03:21:54Z</time>
      </trkpt>
      <trkpt lat="45.57477" lon="4.3978">
        <ele>612</ele>
        <time>2017-05-27T03:23:54Z</time>
      </trkpt>
      <trkpt lat="45.57513" lon="4.39787">
        <ele>616</ele>
        <time>2017-05-27T03:25:54Z</time>
      </trkpt>
      <trkpt lat="45.57535" lon="4.39774">
        <ele>620</ele>
        <time>2017-05-27T03:27:54Z</time>
      </trkpt>
      <trkpt lat="45.57556" lon="4.3975">
        <ele>625</ele>
        <time>2017-05-27T03:29:54Z</time>
      </trkpt>
      <trkpt lat="45.57547" lon="4.39702">
        <ele>628</ele>
        <time>2017-05-27T03:31:54Z</time>
      </trkpt>
      <trkpt lat="45.5755" lon="4.39569">
        <ele>633</ele>
        <time>2017-05-27T03:33:54Z</time>
      </trkpt>
      <trkpt lat="45.57569" lon="4.39417">
        <ele>632</ele>
        <time>2017-05-27T03:35:54Z</time>
      </trkpt>
      <trkpt lat="45.57646" lon="4.39228">
        <ele>645</ele>
        <time>2017-05-27T03:37:54Z</time>
      </trkpt>
      <trkpt lat="45.57679" lon="4.39132">
        <ele>645</ele>
        <time>2017-05-27T03:39:54Z</time>
      </trkpt>
      <trkpt lat="45.57663" lon="4.38999">
        <ele>645</ele>
        <time>2017-05-27T03:41:54Z</time>
      </trkpt>
      <trkpt lat="45.577" lon="4.39057">
        <ele>643</ele>
        <time>2017-05-27T03:43:54Z</time>
      </trkpt>
      <trkpt lat="45.57757" lon="4.39089">
        <ele>638</ele>
        <time>2017-05-27T03:45:54Z</time>
      </trkpt>
      <trkpt lat="45.57764" lon="4.39112">
        <ele>636</ele>
        <time>2017-05-27T03:47:54Z</time>
      </trkpt>
      <trkpt lat="45.57792" lon="4.39121">
        <ele>635</ele>
        <time>2017-05-27T03:49:54Z</time>
      </trkpt>
      <trkpt lat="45.57838" lon="4.39144">
        <ele>629</ele>
        <time>2017-05-27T03:51:54Z</time>
      </trkpt>
      <trkpt lat="45.57869" lon="4.39175">
        <ele>624</ele>
        <time>2017-05-27T03:53:54Z</time>
      </trkpt>
      <trkpt lat="45.57912" lon="4.39211">
        <ele>615</ele>
        <time>2017-05-27T03:55:54Z</time>
      </trkpt>
      <trkpt lat="45.57955" lon="4.39249">
        <ele>608</ele>
        <time>2017-05-27T03:57:54Z</time>
      </trkpt>
      <trkpt lat="45.5811" lon="4.39319">
        <ele>600</ele>
        <time>2017-05-27T03:59:54Z</time>
      </trkpt>
      <trkpt lat="45.58098" lon="4.39403">
        <ele>591</ele>
        <time>2017-05-27T04:01:54Z</time>
      </trkpt>
      <trkpt lat="45.58113" lon="4.3944">
        <ele>583</ele>
        <time>2017-05-27T04:03:54Z</time>
      </trkpt>
      <trkpt lat="45.581" lon="4.39493">
        <ele>572</ele>
        <time>2017-05-27T04:05:54Z</time>
      </trkpt>
      <trkpt lat="45.58106" lon="4.39536">
        <ele>564</ele>
        <time>2017-05-27T04:07:54Z</time>
      </trkpt>
      <trkpt lat="45.58173" lon="4.39532">
        <ele>560</ele>
        <time>2017-05-27T04:09:54Z</time>
      </trkpt>
      <trkpt lat="45.58185" lon="4.395">
        <ele>563</ele>
        <time>2017-05-27T04:11:54Z</time>
      </trkpt>
      <trkpt lat="45.58227" lon="4.39476">
        <ele>557</ele>
        <time>2017-05-27T04:13:54Z</time>
      </trkpt>
      <trkpt lat="45.58263" lon="4.396">
        <ele>548</ele>
        <time>2017-05-27T04:15:54Z</time>
      </trkpt>
      <trkpt lat="45.58308" lon="4.39603">
        <ele>549</ele>
        <time>2017-05-27T04:17:54Z</time>
      </trkpt>
      <trkpt lat="45.58356" lon="4.39663">
        <ele>561</ele>
        <time>2017-05-27T04:19:54Z</time>
      </trkpt>
      <trkpt lat="45.58361" lon="4.39635">
        <ele>557</ele>
        <time>2017-05-27T04:21:54Z</time>
      </trkpt>
      <trkpt lat="45.58413" lon="4.39596">
        <ele>554</ele>
        <time>2017-05-27T04:23:54Z</time>
      </trkpt>
      <trkpt lat="45.58386" lon="4.3953">
        <ele>543</ele>
        <time>2017-05-27T04:25:54Z</time>
      </trkpt>
      <trkpt lat="45.58383" lon="4.39427">
        <ele>539</ele>
        <time>2017-05-27T04:27:54Z</time>
      </trkpt>
      <trkpt lat="45.58481" lon="4.39274">
        <ele>545</ele>
        <time>2017-05-27T04:29:54Z</time>
      </trkpt>
      <trkpt lat="45.58401" lon="4.3918">
        <ele>562</ele>
        <time>2017-05-27T04:31:54Z</time>
      </trkpt>
      <trkpt lat="45.58413" lon="4.39135">
        <ele>565</ele>
        <time>2017-05-27T04:33:54Z</time>
      </trkpt>
      <trkpt lat="45.58415" lon="4.38929">
        <ele>587</ele>
        <time>2017-05-27T04:35:54Z</time>
      </trkpt>
      <trkpt lat="45.58374" lon="4.3883">
        <ele>592</ele>
        <time>2017-05-27T04:37:54Z</time>
      </trkpt>
      <trkpt lat="45.58302" lon="4.38734">
        <ele>592</ele>
        <time>2017-05-27T04:39:54Z</time>
      </trkpt>
      <trkpt lat="45.58258" lon="4.38706">
        <ele>594</ele>
        <time>2017-05-27T04:41:54Z</time>
      </trkpt>
      <trkpt lat="45.58243" lon="4.38663">
        <ele>596</ele>
        <time>2017-05-27T04:43:54Z</time>
      </trkpt>
      <trkpt lat="45.58249" lon="4.3859">
        <ele>601</ele>
        <time>2017-05-27T04:45:54Z</time>
      </trkpt>
      <trkpt lat="45.58282" lon="4.38525">
        <ele>598</ele>
        <time>2017-05-27T04:47:54Z</time>
      </trkpt>
      <trkpt lat="45.58297" lon="4.38397">
        <ele>599</ele>
        <time>2017-05-27T04:49:54Z</time>
      </trkpt>
      <trkpt lat="45.58252" lon="4.38307">
        <ele>600</ele>
        <time>2017-05-27T04:51:54Z</time>
      </trkpt>
      <trkpt lat="45.58213" lon="4.38182">
        <ele>599</ele>
        <time>2017-05-27T04:53:54Z</time>
      </trkpt>
      <trkpt lat="45.58192" lon="4.38139">
        <ele>600</ele>
        <time>2017-05-27T04:55:54Z</time>
      </trkpt>
      <trkpt lat="45.58351" lon="4.37998">
        <ele>587</ele>
        <time>2017-05-27T04:57:54Z</time>
      </trkpt>
      <trkpt lat="45.58375" lon="4.37937">
        <ele>585</ele>
        <time>2017-05-27T04:59:54Z</time>
      </trkpt>
      <trkpt lat="45.58603" lon="4.37865">
        <ele>552</ele>
        <time>2017-05-27T05:01:54Z</time>
      </trkpt>
      <trkpt lat="45.58709" lon="4.37937">
        <ele>539</ele>
        <time>2017-05-27T05:03:54Z</time>
      </trkpt>
      <trkpt lat="45.5876" lon="4.3792">
        <ele>534</ele>
        <time>2017-05-27T05:05:54Z</time>
      </trkpt>
      <trkpt lat="45.58783" lon="4.37871">
        <ele>531</ele>
        <time>2017-05-27T05:07:54Z</time>
      </trkpt>
      <trkpt lat="45.58825" lon="4.37843">
        <ele>525</ele>
        <time>2017-05-27T05:09:54Z</time>
      </trkpt>
      <trkpt lat="45.58805" lon="4.37826">
        <ele>527</ele>
        <time>2017-05-27T05:11:54Z</time>
      </trkpt>
      <trkpt lat="45.58853" lon="4.3783">
        <ele>524</ele>
        <time>2017-05-27T05:13:54Z</time>
      </trkpt>
      <trkpt lat="45.58873" lon="4.37789">
        <ele>525</ele>
        <time>2017-05-27T05:15:54Z</time>
      </trkpt>
      <trkpt lat="45.58947" lon="4.3768">
        <ele>527</ele>
        <time>2017-05-27T05:17:54Z</time>
      </trkpt>
      <trkpt lat="45.59007" lon="4.3759">
        <ele>535</ele>
        <time>2017-05-27T05:19:54Z</time>
      </trkpt>
      <trkpt lat="45.59149" lon="4.37448">
        <ele>546</ele>
        <time>2017-05-27T05:21:54Z</time>
      </trkpt>
      <trkpt lat="45.59202" lon="4.37302">
        <ele>550</ele>
        <time>2017-05-27T05:23:54Z</time>
      </trkpt>
      <trkpt lat="45.59203" lon="4.37217">
        <ele>551</ele>
        <time>2017-05-27T05:25:54Z</time>
      </trkpt>
      <trkpt lat="45.59232" lon="4.37144">
        <ele>551</ele>
        <time>2017-05-27T05:27:54Z</time>
      </trkpt>
      <trkpt lat="45.59229" lon="4.37064">
        <ele>553</ele>
        <time>2017-05-27T05:29:54Z</time>
      </trkpt>
      <trkpt lat="45.59271" lon="4.37047">
        <ele>553</ele>
        <time>2017-05-27T05:31:54Z</time>
      </trkpt>
      <trkpt lat="45.59301" lon="4.37013">
        <ele>552</ele>
        <time>2017-05-27T05:33:54Z</time>
      </trkpt>
      <trkpt lat="45.59344" lon="4.37032">
        <ele>550</ele>
        <time>2017-05-27T05:35:54Z</time>
      </trkpt>
      <trkpt lat="45.59385" lon="4.36995">
        <ele>549</ele>
        <time>2017-05-27T05:37:54Z</time>
      </trkpt>
      <trkpt lat="45.59453" lon="4.36852">
        <ele>549</ele>
        <time>2017-05-27T05:39:54Z</time>
      </trkpt>
      <trkpt lat="45.5951" lon="4.36659">
        <ele>550</ele>
        <time>2017-05-27T05:41:54Z</time>
      </trkpt>
      <trkpt lat="45.59523" lon="4.36573">
        <ele>548</ele>
        <time>2017-05-27T05:43:54Z</time>
      </trkpt>
      <trkpt lat="45.59523" lon="4.36523">
        <ele>547</ele>
        <time>2017-05-27T05:45:54Z</time>
      </trkpt>
      <trkpt lat="45.59568" lon="4.3642">
        <ele>546</ele>
        <time>2017-05-27T05:47:54Z</time>
      </trkpt>
      <trkpt lat="45.59666" lon="4.3633">
        <ele>547</ele>
        <time>2017-05-27T05:49:54Z</time>
      </trkpt>
      <trkpt lat="45.59639" lon="4.36223">
        <ele>545</ele>
        <time>2017-05-27T05:51:54Z</time>
      </trkpt>
      <trkpt lat="45.59618" lon="4.36206">
        <ele>544</ele>
        <time>2017-05-27T05:53:54Z</time>
      </trkpt>
      <trkpt lat="45.59606" lon="4.36154">
        <ele>540</ele>
        <time>2017-05-27T05:55:54Z</time>
      </trkpt>
      <trkpt lat="45.59244" lon="4.36163">
        <ele>525</ele>
        <time>2017-05-27T05:57:54Z</time>
      </trkpt>
      <trkpt lat="45.59154" lon="4.36195">
        <ele>521</ele>
        <time>2017-05-27T05:59:54Z</time>
      </trkpt>
      <trkpt lat="45.59115" lon="4.36197">
        <ele>520</ele>
        <time>2017-05-27T06:01:54Z</time>
      </trkpt>
      <trkpt lat="45.59097" lon="4.36172">
        <ele>519</ele>
        <time>2017-05-27T06:03:54Z</time>
      </trkpt>
      <trkpt lat="45.59139" lon="4.3615">
        <ele>519</ele>
        <time>2017-05-27T06:05:54Z</time>
      </trkpt>
      <trkpt lat="45.59181" lon="4.36079">
        <ele>517</ele>
        <time>2017-05-27T06:07:54Z</time>
      </trkpt>
      <trkpt lat="45.59179" lon="4.36015">
        <ele>516</ele>
        <time>2017-05-27T06:09:54Z</time>
      </trkpt>
      <trkpt lat="45.59214" lon="4.35938">
        <ele>510</ele>
        <time>2017-05-27T06:11:54Z</time>
      </trkpt>
      <trkpt lat="45.59298" lon="4.35867">
        <ele>502</ele>
        <time>2017-05-27T06:13:54Z</time>
      </trkpt>
      <trkpt lat="45.59338" lon="4.35835">
        <ele>498</ele>
        <time>2017-05-27T06:15:54Z</time>
      </trkpt>
      <trkpt lat="45.59378" lon="4.35798">
        <ele>497</ele>
        <time>2017-05-27T06:17:54Z</time>
      </trkpt>
      <trkpt lat="45.59423" lon="4.35796">
        <ele>493</ele>
        <time>2017-05-27T06:19:54Z</time>
      </trkpt>
      <trkpt lat="45.59444" lon="4.35751">
        <ele>492</ele>
        <time>2017-05-27T06:21:54Z</time>
      </trkpt>
      <trkpt lat="45.59475" lon="4.35605">
        <ele>484</ele>
        <time>2017-05-27T06:23:54Z</time>
      </trkpt>
      <trkpt lat="45.5948" lon="4.35528">
        <ele>482</ele>
        <time>2017-05-27T06:25:54Z</time>
      </trkpt>
      <trkpt lat="45.59501" lon="4.3547">
        <ele>479</ele>
        <time>2017-05-27T06:27:54Z</time>
      </trkpt>
      <trkpt lat="45.59555" lon="4.35433">
        <ele>472</ele>
        <time>2017-05-27T06:29:54Z</time>
      </trkpt>
      <trkpt lat="45.5958" lon="4.35384">
        <ele>469</ele>
        <time>2017-05-27T06:31:54Z</time>
      </trkpt>
      <trkpt lat="45.596" lon="4.35319">
        <ele>471</ele>
        <time>2017-05-27T06:33:54Z</time>
      </trkpt>
      <trkpt lat="45.59612" lon="4.35264">
        <ele>475</ele>
        <time>2017-05-27T06:35:54Z</time>
      </trkpt>
      <trkpt lat="45.5964" lon="4.35232">
        <ele>471</ele>
        <time>2017-05-27T06:37:54Z</time>
      </trkpt>
      <trkpt lat="45.59647" lon="4.35189">
        <ele>474</ele>
        <time>2017-05-27T06:39:54Z</time>
      </trkpt>
      <trkpt lat="45.59636" lon="4.35165">
        <ele>478</ele>
        <time>2017-05-27T06:41:54Z</time>
      </trkpt>
      <trkpt lat="45.59652" lon="4.35133">
        <ele>474</ele>
        <time>2017-05-27T06:43:54Z</time>
      </trkpt>
      <trkpt lat="45.59652" lon="4.35066">
        <ele>472</ele>
        <time>2017-05-27T06:45:54Z</time>
      </trkpt>
      <trkpt lat="45.59664" lon="4.35109">
        <ele>471</ele>
        <time>2017-05-27T06:47:54Z</time>
      </trkpt>
      <trkpt lat="45.59685" lon="4.35129">
        <ele>466</ele>
        <time>2017-05-27T06:49:54Z</time>
      </trkpt>
      <trkpt lat="45.597" lon="4.35176">
        <ele>462</ele>
        <time>2017-05-27T06:51:54Z</time>
      </trkpt>
      <trkpt lat="45.59688" lon="4.35221">
        <ele>462</ele>
        <time>2017-05-27T06:53:54Z</time>
      </trkpt>
      <trkpt lat="45.59721" lon="4.35191">
        <ele>455</ele>
        <time>2017-05-27T06:55:54Z</time>
      </trkpt>
      <trkpt lat="45.59721" lon="4.35133">
        <ele>455</ele>
        <time>2017-05-27T06:57:54Z</time>
      </trkpt>
      <trkpt lat="45.59729" lon="4.35101">
        <ele>451</ele>
        <time>2017-05-27T06:59:54Z</time>
      </trkpt>
      <trkpt lat="45.59751" lon="4.35054">
        <ele>444</ele>
        <time>2017-05-27T07:01:54Z</time>
      </trkpt>
      <trkpt lat="45.59738" lon="4.35004">
        <ele>448</ele>
        <time>2017-05-27T07:03:54Z</time>
      </trkpt>
      <trkpt lat="45.59747" lon="4.34972">
        <ele>449</ele>
        <time>2017-05-27T07:05:54Z</time>
      </trkpt>
      <trkpt lat="45.59772" lon="4.34936">
        <ele>446</ele>
        <time>2017-05-27T07:07:54Z</time>
      </trkpt>
      <trkpt lat="45.59789" lon="4.34903">
        <ele>440</ele>
        <time>2017-05-27T07:09:54Z</time>
      </trkpt>
      <trkpt lat="45.59781" lon="4.34871">
        <ele>440</ele>
        <time>2017-05-27T07:11:54Z</time>
      </trkpt>
      <trkpt lat="45.59696" lon="4.34824">
        <ele>458</ele>
        <time>2017-05-27T07:13:54Z</time>
      </trkpt>
      <trkpt lat="45.59699" lon="4.34796">
        <ele>454</ele>
        <time>2017-05-27T07:15:54Z</time>
      </trkpt>
      <trkpt lat="45.59727" lon="4.3477">
        <ele>440</ele>
        <time>2017-05-27T07:17:54Z</time>
      </trkpt>
      <trkpt lat="45.59742" lon="4.34783">
        <ele>436</ele>
        <time>2017-05-27T07:19:54Z</time>
      </trkpt>
      <trkpt lat="45.59781" lon="4.34783">
        <ele>425</ele>
        <time>2017-05-27T07:21:54Z</time>
      </trkpt>
      <trkpt lat="45.59824" lon="4.34789">
        <ele>415</ele>
        <time>2017-05-27T07:23:54Z</time>
      </trkpt>
      <trkpt lat="45.59874" lon="4.34822">
        <ele>413</ele>
        <time>2017-05-27T07:25:54Z</time>
      </trkpt>
      <trkpt lat="45.59915" lon="4.34783">
        <ele>402</ele>
        <time>2017-05-27T07:27:54Z</time>
      </trkpt>
      <trkpt lat="45.59914" lon="4.3482">
        <ele>406</ele>
        <time>2017-05-27T07:29:54Z</time>
      </trkpt>
      <trkpt lat="45.60008" lon="4.34833">
        <ele>403</ele>
        <time>2017-05-27T07:31:54Z</time>
      </trkpt>
      <trkpt lat="45.60097" lon="4.34869">
        <ele>410</ele>
        <time>2017-05-27T07:33:54Z</time>
      </trkpt>
      <trkpt lat="45.60191" lon="4.34878">
        <ele>414</ele>
        <time>2017-05-27T07:35:54Z</time>
      </trkpt>
      <trkpt lat="45.60253" lon="4.34908">
        <ele>417</ele>
        <time>2017-05-27T07:37:54Z</time>
      </trkpt>
      <trkpt lat="45.60314" lon="4.34948">
        <ele>419</ele>
        <time>2017-05-27T07:39:54Z</time>
      </trkpt>
      <trkpt lat="45.60355" lon="4.3494">
        <ele>417</ele>
        <time>2017-05-27T07:41:54Z</time>
      </trkpt>
      <trkpt lat="45.6041" lon="4.34993">
        <ele>428</ele>
        <time>2017-05-27T07:43:54Z</time>
      </trkpt>
      <trkpt lat="45.60417" lon="4.35014">
        <ele>432</ele>
        <time>2017-05-27T07:45:54Z</time>
      </trkpt>
      <trkpt lat="45.6039" lon="4.35076">
        <ele>441</ele>
        <time>2017-05-27T07:47:54Z</time>
      </trkpt>
      <trkpt lat="45.60381" lon="4.35139">
        <ele>447</ele>
        <time>2017-05-27T07:49:54Z</time>
      </trkpt>
      <trkpt lat="45.60387" lon="4.35241">
        <ele>456</ele>
        <time>2017-05-27T07:51:54Z</time>
      </trkpt>
      <trkpt lat="45.60386" lon="4.35308">
        <ele>461</ele>
        <time>2017-05-27T07:53:54Z</time>
      </trkpt>
      <trkpt lat="45.60475" lon="4.35319">
        <ele>462</ele>
        <time>2017-05-27T07:55:54Z</time>
      </trkpt>
      <trkpt lat="45.6051" lon="4.35411">
        <ele>462</ele>
        <time>2017-05-27T07:57:54Z</time>
      </trkpt>
      <trkpt lat="45.60562" lon="4.35482">
        <ele>458</ele>
        <time>2017-05-27T07:59:54Z</time>
      </trkpt>
      <trkpt lat="45.60625" lon="4.35527">
        <ele>463</ele>
        <time>2017-05-27T08:01:54Z</time>
      </trkpt>
      <trkpt lat="45.60654" lon="4.35486">
        <ele>457</ele>
        <time>2017-05-27T08:03:54Z</time>
      </trkpt>
      <trkpt lat="45.60732" lon="4.35276">
        <ele>434</ele>
        <time>2017-05-27T08:05:54Z</time>
      </trkpt>
      <trkpt lat="45.6078" lon="4.35183">
        <ele>421</ele>
        <time>2017-05-27T08:07:54Z</time>
      </trkpt>
      <trkpt lat="45.60703" lon="4.35201">
        <ele>418</ele>
        <time>2017-05-27T08:09:54Z</time>
      </trkpt>
      <trkpt lat="45.60669" lon="4.35228">
        <ele>415</ele>
        <time>2017-05-27T08:11:54Z</time>
      </trkpt>
      <trkpt lat="45.60634" lon="4.35286">
        <ele>423</ele>
        <time>2017-05-27T08:13:54Z</time>
      </trkpt>
      <trkpt lat="45.60601" lon="4.35286">
        <ele>423</ele>
        <time>2017-05-27T08:15:54Z</time>
      </trkpt>
      <trkpt lat="45.60593" lon="4.35272">
        <ele>421</ele>
        <time>2017-05-27T08:17:54Z</time>
      </trkpt>
      <trkpt lat="45.60622" lon="4.35263">
        <ele>419</ele>
        <time>2017-05-27T08:19:54Z</time>
      </trkpt>
      <trkpt lat="45.60635" lon="4.35219">
        <ele>415</ele>
        <time>2017-05-27T08:21:54Z</time>
      </trkpt>
      <trkpt lat="45.6061" lon="4.35189">
        <ele>415</ele>
        <time>2017-05-27T08:23:54Z</time>
      </trkpt>
      <trkpt lat="45.60606" lon="4.35163">
        <ele>414</ele>
        <time>2017-05-27T08:25:54Z</time>
      </trkpt>
      <trkpt lat="45.606" lon="4.35147">
        <ele>415</ele>
        <time>2017-05-27T08:27:54Z</time>
      </trkpt>
      <trkpt lat="45.60604" lon="4.35093">
        <ele>417</ele>
        <time>2017-05-27T08:29:54Z</time>
      </trkpt>
      <trkpt lat="45.60625" lon="4.35121">
        <ele>416</ele>
        <time>2017-05-27T08:31:54Z</time>
      </trkpt>
      <trkpt lat="45.60627" lon="4.35069">
        <ele>419</ele>
        <time>2017-05-27T08:33:54Z</time>
      </trkpt>
      <trkpt lat="45.60643" lon="4.35053">
        <ele>423</ele>
        <time>2017-05-27T08:35:54Z</time>
      </trkpt>
      <trkpt lat="45.60648" lon="4.35031">
        <ele>427</ele>
        <time>2017-05-27T08:37:54Z</time>
      </trkpt>
      <trkpt lat="45.60702" lon="4.34959">
        <ele>445</ele>
        <time>2017-05-27T08:39:54Z</time>
      </trkpt>
      <trkpt lat="45.60722" lon="4.34883">
        <ele>462</ele>
        <time>2017-05-27T08:41:54Z</time>
      </trkpt>
      <trkpt lat="45.60716" lon="4.34822">
        <ele>466</ele>
        <time>2017-05-27T08:43:54Z</time>
      </trkpt>
      <trkpt lat="45.60736" lon="4.34739">
        <ele>475</ele>
        <time>2017-05-27T08:45:54Z</time>
      </trkpt>
      <trkpt lat="45.60747" lon="4.34726">
        <ele>478</ele>
        <time>2017-05-27T08:47:54Z</time>
      </trkpt>
      <trkpt lat="45.60757" lon="4.34736">
        <ele>480</ele>
        <time>2017-05-27T08:49:54Z</time>
      </trkpt>
      <trkpt lat="45.60779" lon="4.34793">
        <ele>484</ele>
        <time>2017-05-27T08:51:54Z</time>
      </trkpt>
      <trkpt lat="45.60809" lon="4.34838">
        <ele>489</ele>
        <time>2017-05-27T08:53:54Z</time>
      </trkpt>
      <trkpt lat="45.60832" lon="4.34853">
        <ele>491</ele>
        <time>2017-05-27T08:55:54Z</time>
      </trkpt>
      <trkpt lat="45.60851" lon="4.34854">
        <ele>493</ele>
        <time>2017-05-27T08:57:54Z</time>
      </trkpt>
      <trkpt lat="45.60881" lon="4.3485">
        <ele>498</ele>
        <time>2017-05-27T08:59:54Z</time>
      </trkpt>
      <trkpt lat="45.61004" lon="4.34812">
        <ele>513</ele>
        <time>2017-05-27T09:01:54Z</time>
      </trkpt>
      <trkpt lat="45.61022" lon="4.34917">
        <ele>505</ele>
        <time>2017-05-27T09:03:54Z</time>
      </trkpt>
      <trkpt lat="45.61034" lon="4.34993">
        <ele>499</ele>
        <time>2017-05-27T09:05:54Z</time>
      </trkpt>
      <trkpt lat="45.61047" lon="4.35016">
        <ele>498</ele>
        <time>2017-05-27T09:07:54Z</time>
      </trkpt>
      <trkpt lat="45.61044" lon="4.35069">
        <ele>490</ele>
        <time>2017-05-27T09:09:54Z</time>
      </trkpt>
      <trkpt lat="45.61053" lon="4.35106">
        <ele>489</ele>
        <time>2017-05-27T09:11:54Z</time>
      </trkpt>
      <trkpt lat="45.61051" lon="4.35129">
        <ele>487</ele>
        <time>2017-05-27T09:13:54Z</time>
      </trkpt>
      <trkpt lat="45.61042" lon="4.3516">
        <ele>484</ele>
        <time>2017-05-27T09:15:54Z</time>
      </trkpt>
      <trkpt lat="45.61031" lon="4.35177">
        <ele>481</ele>
        <time>2017-05-27T09:17:54Z</time>
      </trkpt>
      <trkpt lat="45.61014" lon="4.35197">
        <ele>478</ele>
        <time>2017-05-27T09:19:54Z</time>
      </trkpt>
      <trkpt lat="45.60987" lon="4.3532">
        <ele>471</ele>
        <time>2017-05-27T09:21:54Z</time>
      </trkpt>
      <trkpt lat="45.6098" lon="4.35366">
        <ele>466</ele>
        <time>2017-05-27T09:23:54Z</time>
      </trkpt>
      <trkpt lat="45.60955" lon="4.354">
        <ele>454</ele>
        <time>2017-05-27T09:25:54Z</time>
      </trkpt>
      <trkpt lat="45.60954" lon="4.35453">
        <ele>451</ele>
        <time>2017-05-27T09:27:54Z</time>
      </trkpt>
      <trkpt lat="45.60936" lon="4.35449">
        <ele>445</ele>
        <time>2017-05-27T09:29:54Z</time>
      </trkpt>
      <trkpt lat="45.6093" lon="4.35475">
        <ele>443</ele>
        <time>2017-05-27T09:31:54Z</time>
      </trkpt>
      <trkpt lat="45.60946" lon="4.35504">
        <ele>444</ele>
        <time>2017-05-27T09:33:54Z</time>
      </trkpt>
      <trkpt lat="45.60973" lon="4.35524">
        <ele>446</ele>
        <time>2017-05-27T09:35:54Z</time>
      </trkpt>
      <trkpt lat="45.6103" lon="4.35513">
        <ele>453</ele>
        <time>2017-05-27T09:37:54Z</time>
      </trkpt>
      <trkpt lat="45.6105" lon="4.35526">
        <ele>452</ele>
        <time>2017-05-27T09:39:54Z</time>
      </trkpt>
      <trkpt lat="45.61047" lon="4.35543">
        <ele>451</ele>
        <time>2017-05-27T09:41:54Z</time>
      </trkpt>
      <trkpt lat="45.61035" lon="4.35576">
        <ele>448</ele>
        <time>2017-05-27T09:43:54Z</time>
      </trkpt>
      <trkpt lat="45.6103" lon="4.35615">
        <ele>447</ele>
        <time>2017-05-27T09:45:54Z</time>
      </trkpt>
      <trkpt lat="45.61029" lon="4.35654">
        <ele>448</ele>
        <time>2017-05-27T09:47:54Z</time>
      </trkpt>
      <trkpt lat="45.61079" lon="4.35674">
        <ele>454</ele>
        <time>2017-05-27T09:49:54Z</time>
      </trkpt>
      <trkpt lat="45.61108" lon="4.35672">
        <ele>457</ele>
        <time>2017-05-27T09:51:54Z</time>
      </trkpt>
      <trkpt lat="45.61125" lon="4.3572">
        <ele>454</ele>
        <time>2017-05-27T09:53:54Z</time>
      </trkpt>
      <trkpt lat="45.61168" lon="4.35758">
        <ele>454</ele>
        <time>2017-05-27T09:55:54Z</time>
      </trkpt>
      <trkpt lat="45.61176" lon="4.3578">
        <ele>450</ele>
        <time>2017-05-27T09:57:54Z</time>
      </trkpt>
      <trkpt lat="45.61139" lon="4.35814">
        <ele>440</ele>
        <time>2017-05-27T09:59:54Z</time>
      </trkpt>
      <trkpt lat="45.61144" lon="4.35875">
        <ele>436</ele>
        <time>2017-05-27T10:01:54Z</time>
      </trkpt>
      <trkpt lat="45.61156" lon="4.35943">
        <ele>436</ele>
        <time>2017-05-27T10:03:54Z</time>
      </trkpt>
      <trkpt lat="45.61157" lon="4.35975">
        <ele>435</ele>
        <time>2017-05-27T10:05:54Z</time>
      </trkpt>
      <trkpt lat="45.61165" lon="4.36001">
        <ele>434</ele>
        <time>2017-05-27T10:07:54Z</time>
      </trkpt>
      <trkpt lat="45.61156" lon="4.36028">
        <ele>435</ele>
        <time>2017-05-27T10:09:54Z</time>
      </trkpt>
      <trkpt lat="45.61153" lon="4.36122">
        <ele>438</ele>
        <time>2017-05-27T10:11:54Z</time>
      </trkpt>
      <trkpt lat="45.61152" lon="4.36263">
        <ele>440</ele>
        <time>2017-05-27T10:13:54Z</time>
      </trkpt>
      <trkpt lat="45.61133" lon="4.36623">
        <ele>446</ele>
        <time>2017-05-27T10:15:54Z</time>
      </trkpt>
      <trkpt lat="45.61114" lon="4.36713">
        <ele>443</ele>
        <time>2017-05-27T10:17:54Z</time>
      </trkpt>
      <trkpt lat="45.61089" lon="4.36768">
        <ele>438</ele>
        <time>2017-05-27T10:19:54Z</time>
      </trkpt>
      <trkpt lat="45.61076" lon="4.36864">
        <ele>440</ele>
        <time>2017-05-27T10:21:54Z</time>
      </trkpt>
      <trkpt lat="45.61086" lon="4.36932">
        <ele>439</ele>
        <time>2017-05-27T10:23:54Z</time>
      </trkpt>
      <trkpt lat="45.61095" lon="4.36965">
        <ele>441</ele>
        <time>2017-05-27T10:25:54Z</time>
      </trkpt>
      <trkpt lat="45.61092" lon="4.37043">
        <ele>435</ele>
        <time>2017-05-27T10:27:54Z</time>
      </trkpt>
      <trkpt lat="45.61108" lon="4.37103">
        <ele>433</ele>
        <time>2017-05-27T10:29:54Z</time>
      </trkpt>
      <trkpt lat="45.61148" lon="4.37118">
        <ele>438</ele>
        <time>2017-05-27T10:31:54Z</time>
      </trkpt>
      <trkpt lat="45.61189" lon="4.37103">
        <ele>444</ele>
        <time>2017-05-27T10:33:54Z</time>
      </trkpt>
      <trkpt lat="45.61223" lon="4.37097">
        <ele>446</ele>
        <time>2017-05-27T10:35:54Z</time>
      </trkpt>
      <trkpt lat="45.61265" lon="4.37077">
        <ele>448</ele>
        <time>2017-05-27T10:37:54Z</time>
      </trkpt>
      <trkpt lat="45.61375" lon="4.37015">
        <ele>451</ele>
        <time>2017-05-27T10:39:54Z</time>
      </trkpt>
      <trkpt lat="45.61439" lon="4.37016">
        <ele>448</ele>
        <time>2017-05-27T10:41:54Z</time>
      </trkpt>
      <trkpt lat="45.61465" lon="4.36993">
        <ele>449</ele>
        <time>2017-05-27T10:43:54Z</time>
      </trkpt>
      <trkpt lat="45.61504" lon="4.37029">
        <ele>451</ele>
        <time>2017-05-27T10:45:54Z</time>
      </trkpt>
      <trkpt lat="45.61523" lon="4.36995">
        <ele>453</ele>
        <time>2017-05-27T10:47:54Z</time>
      </trkpt>
      <trkpt lat="45.61597" lon="4.3696">
        <ele>460</ele>
        <time>2017-05-27T10:49:54Z</time>
      </trkpt>
      <trkpt lat="45.61635" lon="4.36956">
        <ele>462</ele>
        <time>2017-05-27T10:51:54Z</time>
      </trkpt>
      <trkpt lat="45.61706" lon="4.36971">
        <ele>465</ele>
        <time>2017-05-27T10:53:54Z</time>
      </trkpt>
      <trkpt lat="45.61772" lon="4.36968">
        <ele>466</ele>
        <time>2017-05-27T10:55:54Z</time>
      </trkpt>
      <trkpt lat="45.61828" lon="4.36946">
        <ele>470</ele>
        <time>2017-05-27T10:57:54Z</time>
      </trkpt>
      <trkpt lat="45.61967" lon="4.36842">
        <ele>481</ele>
        <time>2017-05-27T10:59:54Z</time>
      </trkpt>
      <trkpt lat="45.62003" lon="4.36842">
        <ele>483</ele>
        <time>2017-05-27T11:01:54Z</time>
      </trkpt>
      <trkpt lat="45.62121" lon="4.36784">
        <ele>489</ele>
        <time>2017-05-27T11:03:54Z</time>
      </trkpt>
      <trkpt lat="45.62214" lon="4.36755">
        <ele>491</ele>
        <time>2017-05-27T11:05:54Z</time>
      </trkpt>
      <trkpt lat="45.62247" lon="4.36753">
        <ele>492</ele>
        <time>2017-05-27T11:07:54Z</time>
      </trkpt>
      <trkpt lat="45.62253" lon="4.36862">
        <ele>491</ele>
        <time>2017-05-27T11:09:54Z</time>
      </trkpt>
      <trkpt lat="45.6227" lon="4.36946">
        <ele>492</ele>
        <time>2017-05-27T11:11:54Z</time>
      </trkpt>
      <trkpt lat="45.62285" lon="4.3713">
        <ele>499</ele>
        <time>2017-05-27T11:13:54Z</time>
      </trkpt>
      <trkpt lat="45.62293" lon="4.37151">
        <ele>500</ele>
        <time>2017-05-27T11:15:54Z</time>
      </trkpt>
      <trkpt lat="45.62318" lon="4.37177">
        <ele>503</ele>
        <time>2017-05-27T11:17:54Z</time>
      </trkpt>
      <trkpt lat="45.62379" lon="4.37192">
        <ele>509</ele>
        <time>2017-05-27T11:19:54Z</time>
      </trkpt>
      <trkpt lat="45.62408" lon="4.37174">
        <ele>511</ele>
        <time>2017-05-27T11:21:54Z</time>
      </trkpt>
      <trkpt lat="45.6245" lon="4.37173">
        <ele>514</ele>
        <time>2017-05-27T11:23:54Z</time>
      </trkpt>
      <trkpt lat="45.62572" lon="4.3716">
        <ele>522</ele>
        <time>2017-05-27T11:25:54Z</time>
      </trkpt>
      <trkpt lat="45.62757" lon="4.37206">
        <ele>531</ele>
        <time>2017-05-27T11:27:54Z</time>
      </trkpt>
      <trkpt lat="45.62778" lon="4.37219">
        <ele>533</ele>
        <time>2017-05-27T11:29:54Z</time>
      </trkpt>
      <trkpt lat="45.62879" lon="4.37247">
        <ele>541</ele>
        <time>2017-05-27T11:31:54Z</time>
      </trkpt>
      <trkpt lat="45.62983" lon="4.37329">
        <ele>549</ele>
        <time>2017-05-27T11:33:54Z</time>
      </trkpt>
      <trkpt lat="45.63124" lon="4.37329">
        <ele>558</ele>
        <time>2017-05-27T11:35:54Z</time>
      </trkpt>
      <trkpt lat="45.63227" lon="4.3734">
        <ele>565</ele>
        <time>2017-05-27T11:37:54Z</time>
      </trkpt>
      <trkpt lat="45.63338" lon="4.37376">
        <ele>574</ele>
        <time>2017-05-27T11:39:54Z</time>
      </trkpt>
      <trkpt lat="45.63358" lon="4.37391">
        <ele>576</ele>
        <time>2017-05-27T11:41:54Z</time>
      </trkpt>
      <trkpt lat="45.63354" lon="4.37506">
        <ele>577</ele>
        <time>2017-05-27T11:43:54Z</time>
      </trkpt>
      <trkpt lat="45.63355" lon="4.37567">
        <ele>578</ele>
        <time>2017-05-27T11:45:54Z</time>
      </trkpt>
      <trkpt lat="45.63385" lon="4.37644">
        <ele>580</ele>
        <time>2017-05-27T11:47:54Z</time>
      </trkpt>
      <trkpt lat="45.6344" lon="4.37647">
        <ele>585</ele>
        <time>2017-05-27T11:49:54Z</time>
      </trkpt>
      <trkpt lat="45.63461" lon="4.37762">
        <ele>588</ele>
        <time>2017-05-27T11:51:54Z</time>
      </trkpt>
      <trkpt lat="45.6351" lon="4.37736">
        <ele>591</ele>
        <time>2017-05-27T11:53:54Z</time>
      </trkpt>
      <trkpt lat="45.63512" lon="4.37786">
        <ele>592</ele>
        <time>2017-05-27T11:55:54Z</time>
      </trkpt>
      <trkpt lat="45.63507" lon="4.37817">
        <ele>593</ele>
        <time>2017-05-27T11:57:54Z</time>
      </trkpt>
      <trkpt lat="45.6349" lon="4.37834">
        <ele>592</ele>
        <time>2017-05-27T11:59:54Z</time>
      </trkpt>
      <trkpt lat="45.63497" lon="4.3786">
        <ele>593</ele>
        <time>2017-05-27T12:01:54Z</time>
      </trkpt>
      <trkpt lat="45.63519" lon="4.37847">
        <ele>593</ele>
        <time>2017-05-27T12:03:54Z</time>
      </trkpt>
      <trkpt lat="45.63542" lon="4.38155">
        <ele>596</ele>
        <time>2017-05-27T12:05:54Z</time>
      </trkpt>
      <trkpt lat="45.63591" lon="4.38489">
        <ele>605</ele>
        <time>2017-05-27T12:07:54Z</time>
      </trkpt>
      <trkpt lat="45.63656" lon="4.38797">
        <ele>611</ele>
        <time>2017-05-27T12:09:54Z</time>
      </trkpt>
      <trkpt lat="45.63649" lon="4.38817">
        <ele>611</ele>
        <time>2017-05-27T12:11:54Z</time>
      </trkpt>
      <trkpt lat="45.63671" lon="4.38818">
        <ele>612</ele>
        <time>2017-05-27T12:13:54Z</time>
      </trkpt>
      <trkpt lat="45.63698" lon="4.38883">
        <ele>615</ele>
        <time>2017-05-27T12:15:54Z</time>
      </trkpt>
      <trkpt lat="45.63749" lon="4.38973">
        <ele>618</ele>
        <time>2017-05-27T12:17:54Z</time>
      </trkpt>
      <trkpt lat="45.63771" lon="4.39026">
        <ele>620</ele>
        <time>2017-05-27T12:19:54Z</time>
      </trkpt>
      <trkpt lat="45.63798" lon="4.39054">
        <ele>621</ele>
        <time>2017-05-27T12:21:54Z</time>
      </trkpt>
      <trkpt lat="45.6383" lon="4.39098">
        <ele>621</ele>
        <time>2017-05-27T12:23:54Z</time>
      </trkpt>
      <trkpt lat="45.63851" lon="4.39165">
        <ele>622</ele>
        <time>2017-05-27T12:25:54Z</time>
      </trkpt>
      <trkpt lat="45.63861" lon="4.39181">
        <ele>622</ele>
        <time>2017-05-27T12:27:54Z</time>
      </trkpt>
      <trkpt lat="45.63846" lon="4.39188">
        <ele>623</ele>
        <time>2017-05-27T12:29:54Z</time>
      </trkpt>
      <trkpt lat="45.63854" lon="4.39229">
        <ele>623</ele>
        <time>2017-05-27T12:31:54Z</time>
      </trkpt>
      <trkpt lat="45.63922" lon="4.39356">
        <ele>623</ele>
        <time>2017-05-27T12:33:54Z</time>
      </trkpt>
      <trkpt lat="45.63975" lon="4.39427">
        <ele>623</ele>
        <time>2017-05-27T12:35:54Z</time>
      </trkpt>
      <trkpt lat="45.63989" lon="4.39463">
        <ele>623</ele>
        <time>2017-05-27T12:37:54Z</time>
      </trkpt>
      <trkpt lat="45.63958" lon="4.39484">
        <ele>623</ele>
        <time>2017-05-27T12:39:54Z</time>
      </trkpt>
      <trkpt lat="45.63838" lon="4.39543">
        <ele>622</ele>
        <time>2017-05-27T12:41:54Z</time>
      </trkpt>
      <trkpt lat="45.63832" lon="4.39565">
        <ele>620</ele>
        <time>2017-05-27T12:43:54Z</time>
      </trkpt>
      <trkpt lat="45.6384" lon="4.39632">
        <ele>615</ele>
        <time>2017-05-27T12:45:54Z</time>
      </trkpt>
    </trkseg>
  </trk>
</gpx>